Time;durP1;ratioP1;P1;durP2;ratioP2;P2;SDS_P1;SDS_P2;PMS_P1;PMS_P2;Temp;Humidity;BMP_temperature;BMP_pressure;BME280_temperature;BME280_humidity;BME280_pressure;Samples;Min_cycle;Max_cycle;Signal;HPM_P1;HPM_P2
2023/04/30 00:01:13;;;;;;;6.32;3.60;;;;;;;19.50;100.00;96481.94;4961636;28;20113;-61
2023/04/30 00:03:41;;;;;;;16.90;8.23;;;;;;;18.74;100.00;96488.94;4957036;28;20089;-58
2023/04/30 00:06:09;;;;;;;19.67;15.25;;;;;;;19.15;100.00;96484.66;4965389;28;20089;-59
2023/04/30 00:08:38;;;;;;;5.32;3.38;;;;;;;19.29;100.00;96491.72;4961360;28;20671;-61
2023/04/30 00:11:07;;;;;;;21.70;10.75;;;;;;;19.43;100.00;96487.25;4961466;28;20550;-58
2023/04/30 00:13:35;;;;;;;37.83;23.97;;;;;;;18.87;100.00;96487.38;4963228;28;20307;-58
2023/04/30 00:16:04;;;;;;;63.30;48.35;;;;;;;19.18;100.00;96487.78;4960957;28;20521;-59
2023/04/30 00:18:33;;;;;;;64.95;42.38;;;;;;;19.18;100.00;96485.09;4961186;28;20078;-55
2023/04/30 00:21:01;;;;;;;66.45;42.78;;;;;;;19.06;100.00;96493.84;4966464;28;20089;-59
2023/04/30 00:23:29;;;;;;;83.90;53.05;;;;;;;19.04;100.00;96482.56;4960319;28;20073;-56
2023/04/30 00:25:58;;;;;;;63.70;43.50;;;;;;;18.92;100.00;96484.94;4966746;28;20090;-59
2023/04/30 00:28:27;;;;;;;88.22;53.55;;;;;;;19.20;100.00;96488.41;4962054;28;20090;-56
2023/04/30 00:30:56;;;;;;;101.00;59.97;;;;;;;18.73;100.00;96497.97;4960078;28;20082;-60
2023/04/30 00:33:24;;;;;;;111.95;67.30;;;;;;;18.71;100.00;96501.81;4962423;28;20082;-54
2023/04/30 00:35:52;;;;;;;103.57;65.00;;;;;;;18.68;100.00;96492.34;4960089;28;20498;-56
2023/04/30 00:38:21;;;;;;;109.00;62.83;;;;;;;18.70;100.00;96489.50;4958603;28;20962;-54
2023/04/30 00:40:49;;;;;;;100.00;63.05;;;;;;;18.55;100.00;96488.75;4962022;28;20735;-54
2023/04/30 00:43:17;;;;;;;104.78;66.55;;;;;;;18.53;100.00;96494.31;4959689;28;20137;-60
2023/04/30 00:45:47;;;;;;;82.15;48.53;;;;;;;18.87;100.00;96488.22;4963583;28;20517;-59
2023/04/30 00:48:15;;;;;;;128.13;68.70;;;;;;;18.40;100.00;96491.53;4965143;28;20155;-60
2023/04/30 00:50:44;;;;;;;121.03;67.55;;;;;;;18.41;100.00;96496.69;4960627;28;20102;-58
2023/04/30 00:53:13;;;;;;;107.45;56.88;;;;;;;18.03;100.00;96494.28;4963308;28;20089;-58
2023/04/30 00:55:42;;;;;;;69.68;47.28;;;;;;;18.47;100.00;96487.06;4960299;28;20078;-59
2023/04/30 00:58:14;;;;;;;158.30;85.80;;;;;;;18.48;100.00;96494.06;4962487;28;20082;-56
2023/04/30 01:00:50;;;;;;;143.57;76.18;;;;;;;18.52;100.00;96499.84;4966481;28;20066;-57
2023/04/30 01:03:22;;;;;;;163.18;87.50;;;;;;;18.31;100.00;96503.38;4949070;28;20132;-58
2023/04/30 01:05:53;;;;;;;154.30;82.28;;;;;;;17.91;100.00;96506.47;4965129;28;20046;-57
2023/04/30 01:08:58;;;;;;;152.63;81.70;;;;;;;18.88;100.00;96505.06;4961385;28;20046;-58
2023/04/30 01:11:41;;;;;;;167.02;93.45;;;;;;;18.89;100.00;96504.88;4964350;28;20055;-57
2023/04/30 01:14:23;;;;;;;141.55;78.88;;;;;;;18.76;100.00;96503.97;4968539;28;20063;-57
2023/04/30 01:17:05;;;;;;;137.57;81.78;;;;;;;18.70;100.00;96514.38;4940360;28;20543;-59
2023/04/30 01:19:43;;;;;;;83.07;50.35;;;;;;;18.82;100.00;96508.50;4962549;28;20483;-55
2023/04/30 01:22:25;;;;;;;93.95;57.25;;;;;;;18.72;100.00;96519.56;4959979;28;20086;-57
2023/04/30 01:25:10;;;;;;;131.65;77.50;;;;;;;18.95;100.00;96514.75;4958294;28;20078;-57
2023/04/30 01:28:02;;;;;;;132.35;75.57;;;;;;;18.94;100.00;96513.13;4960640;28;20095;-55
2023/04/30 01:30:31;;;;;;;148.15;80.32;;;;;;;18.24;100.00;96519.34;4956403;28;20613;-61
2023/04/30 01:33:00;;;;;;;133.05;75.03;;;;;;;18.14;100.00;96513.47;4962507;28;20080;-59
2023/04/30 01:35:56;;;;;;;146.10;87.75;;;;;;;18.87;100.00;96512.25;4960896;28;20608;-60
2023/04/30 01:38:34;;;;;;;120.28;66.75;;;;;;;18.87;100.00;96511.44;4956317;28;20094;-58
2023/04/30 01:41:10;;;;;;;131.85;74.60;;;;;;;18.90;100.00;96517.22;4956766;28;20090;-60
2023/04/30 01:43:47;;;;;;;122.95;67.30;;;;;;;18.91;100.00;96518.84;4963661;28;20086;-54
2023/04/30 01:46:20;;;;;;;139.75;97.03;;;;;;;18.83;100.00;96521.69;4964931;28;20090;-58
2023/04/30 01:48:54;;;;;;;138.95;74.63;;;;;;;18.76;100.00;96525.34;4971259;28;20082;-59
2023/04/30 01:51:30;;;;;;;161.38;85.15;;;;;;;18.65;100.00;96524.81;4962739;28;20086;-55
2023/04/30 01:54:02;;;;;;;160.73;84.55;;;;;;;18.40;100.00;96527.06;4959449;28;20451;-56
2023/04/30 01:56:32;;;;;;;169.55;91.53;;;;;;;18.14;100.00;96532.16;4957824;28;20444;-59
2023/04/30 01:59:02;;;;;;;172.20;95.63;;;;;;;18.29;100.00;96529.44;4961192;28;20086;-58
2023/04/30 02:01:32;;;;;;;168.48;91.65;;;;;;;18.09;100.00;96531.91;4960220;28;20090;-57
2023/04/30 02:04:00;;;;;;;160.30;89.27;;;;;;;17.78;100.00;96531.16;4961127;28;20079;-57
2023/04/30 02:06:30;;;;;;;162.10;86.95;;;;;;;17.60;100.00;96527.22;4958558;28;20095;-56
2023/04/30 02:09:02;;;;;;;156.30;85.78;;;;;;;17.68;100.00;96524.44;4960678;28;20123;-58
2023/04/30 02:11:30;;;;;;;165.05;84.60;;;;;;;17.46;100.00;96527.06;4959736;28;20097;-57
2023/04/30 02:13:58;;;;;;;165.05;88.15;;;;;;;17.25;100.00;96533.16;4964366;28;20082;-57
2023/04/30 02:16:28;;;;;;;92.38;50.65;;;;;;;17.68;100.00;96524.44;4957506;28;20078;-59
2023/04/30 02:18:56;;;;;;;170.40;85.47;;;;;;;17.02;100.00;96543.06;4957633;28;20074;-58
2023/04/30 02:21:26;;;;;;;162.13;87.45;;;;;;;17.14;100.00;96538.94;4959454;28;20965;-56
2023/04/30 02:23:54;;;;;;;153.93;79.80;;;;;;;17.35;100.00;96538.19;4959973;28;20078;-56
2023/04/30 02:26:22;;;;;;;147.48;75.35;;;;;;;17.36;100.00;96537.19;4960543;28;20086;-57
2023/04/30 02:28:50;;;;;;;152.93;79.93;;;;;;;17.22;100.00;96543.34;4963835;28;20093;-59
2023/04/30 02:31:19;;;;;;;148.70;77.80;;;;;;;17.95;100.00;96546.94;4959352;28;20538;-54
2023/04/30 02:33:49;;;;;;;136.82;76.25;;;;;;;18.00;100.00;96541.88;4965158;28;20079;-59
2023/04/30 02:36:17;;;;;;;129.10;72.97;;;;;;;18.03;100.00;96549.47;4971335;28;20086;-55
2023/04/30 02:38:45;;;;;;;118.93;64.03;;;;;;;18.21;100.00;96544.56;4961206;28;20082;-55
2023/04/30 02:41:14;;;;;;;109.28;63.45;;;;;;;18.25;100.00;96543.16;4963288;28;20109;-55
2023/04/30 02:43:42;;;;;;;114.10;64.68;;;;;;;18.39;100.00;96536.09;4967020;28;20148;-54
2023/04/30 02:46:10;;;;;;;122.88;69.80;;;;;;;18.24;100.00;96538.84;4961436;28;20086;-61
2023/04/30 02:48:38;;;;;;;126.90;71.82;;;;;;;18.32;100.00;96534.38;4963861;28;20091;-56
2023/04/30 02:51:08;;;;;;;122.20;72.78;;;;;;;18.59;100.00;96538.13;4971610;28;20082;-58
2023/04/30 02:53:36;;;;;;;116.32;64.75;;;;;;;18.35;100.00;96540.16;4972719;28;20089;-59
2023/04/30 02:56:06;;;;;;;120.78;69.13;;;;;;;18.57;100.00;96542.81;4967648;28;20522;-56
2023/04/30 02:58:34;;;;;;;133.45;77.43;;;;;;;18.37;100.00;96543.47;4959587;28;20111;-59
2023/04/30 03:01:02;;;;;;;149.15;88.00;;;;;;;18.34;100.00;96551.88;4961708;28;20098;-59
2023/04/30 03:03:31;;;;;;;146.52;85.10;;;;;;;18.19;100.00;96557.25;4967010;28;20087;-58
2023/04/30 03:05:59;;;;;;;147.55;79.65;;;;;;;17.84;100.00;96566.13;4964805;28;20097;-55
2023/04/30 03:08:29;;;;;;;155.70;86.55;;;;;;;18.26;100.00;96563.47;4963756;28;20574;-57
2023/04/30 03:10:57;;;;;;;163.50;95.32;;;;;;;17.96;100.00;96553.91;4960725;28;20157;-57
2023/04/30 03:13:26;;;;;;;150.25;84.22;;;;;;;18.01;100.00;96547.00;4962228;28;20180;-56
2023/04/30 03:15:58;;;;;;;153.93;82.95;;;;;;;18.44;100.00;96557.72;4970039;28;20947;-54
2023/04/30 03:18:26;;;;;;;161.30;89.20;;;;;;;17.89;100.00;96553.84;4965366;28;20093;-57
2023/04/30 03:20:55;;;;;;;163.13;90.07;;;;;;;17.77;100.00;96545.50;4963366;28;20097;-57
2023/04/30 03:23:23;;;;;;;141.77;74.28;;;;;;;17.67;100.00;96546.78;4963106;28;20090;-56
2023/04/30 03:25:53;;;;;;;199.35;108.47;;;;;;;18.46;100.00;96550.31;4959177;28;20078;-60
2023/04/30 03:28:22;;;;;;;138.68;73.90;;;;;;;18.14;100.00;96545.50;4960989;28;20094;-55
2023/04/30 03:30:50;;;;;;;169.13;97.03;;;;;;;18.58;100.00;96541.78;4959218;28;20082;-56
2023/04/30 03:33:19;;;;;;;97.72;48.42;;;;;;;19.06;100.00;96533.94;4961389;28;20086;-56
2023/04/30 03:35:48;;;;;;;10.63;5.70;;;;;;;19.61;95.37;96527.69;4960565;28;20157;-57
2023/04/30 03:38:16;;;;;;;8.98;6.05;;;;;;;19.72;94.22;96528.13;4965164;28;20090;-56
2023/04/30 03:40:45;;;;;;;9.20;6.45;;;;;;;19.56;94.05;96516.75;4962122;28;20136;-57
2023/04/30 03:43:15;;;;;;;9.80;6.15;;;;;;;19.58;93.35;96520.06;4964560;28;20109;-56
2023/04/30 03:45:43;;;;;;;11.43;6.95;;;;;;;19.64;92.67;96521.94;4961171;28;20732;-57
2023/04/30 03:48:11;;;;;;;10.10;6.65;;;;;;;19.69;91.36;96524.03;4960283;28;20082;-58
2023/04/30 03:50:40;;;;;;;10.68;6.43;;;;;;;19.80;90.35;96525.31;4964241;28;20093;-58
2023/04/30 03:53:08;;;;;;;11.25;6.90;;;;;;;19.65;90.17;96523.63;4968198;28;20086;-57
2023/04/30 03:55:36;;;;;;;11.05;7.20;;;;;;;19.48;91.86;96526.78;4962348;28;20070;-57
2023/04/30 03:58:04;;;;;;;11.68;7.22;;;;;;;19.56;92.56;96522.09;4966841;28;20712;-55
2023/04/30 04:00:34;;;;;;;10.82;7.32;;;;;;;19.55;92.74;96524.97;4964537;28;20094;-58
2023/04/30 04:03:03;;;;;;;12.40;7.35;;;;;;;19.44;94.40;96515.66;4958014;28;20486;-57
2023/04/30 04:05:31;;;;;;;10.63;6.80;;;;;;;19.44;93.52;96515.66;4964168;28;20085;-55
2023/04/30 04:08:00;;;;;;;11.52;7.20;;;;;;;19.34;96.18;96510.69;4960489;28;20070;-57
2023/04/30 04:10:28;;;;;;;9.90;7.18;;;;;;;19.48;93.03;96516.94;4962211;28;20089;-56
2023/04/30 04:12:57;;;;;;;11.07;7.00;;;;;;;19.40;93.74;96509.06;4962354;28;20591;-54
2023/04/30 04:15:25;;;;;;;10.85;7.28;;;;;;;19.50;93.76;96516.72;4961357;28;20085;-54
2023/04/30 04:17:55;;;;;;;12.80;7.90;;;;;;;19.50;93.25;96519.38;4957935;28;20090;-59
2023/04/30 04:20:23;;;;;;;9.87;6.83;;;;;;;19.53;91.50;96527.84;4960556;28;20545;-56
2023/04/30 04:22:51;;;;;;;9.40;6.85;;;;;;;19.47;92.11;96527.81;4966532;28;20118;-57
2023/04/30 04:25:23;;;;;;;9.80;6.68;;;;;;;18.88;96.99;96524.59;4961169;28;20082;-57
2023/04/30 04:27:52;;;;;;;10.70;7.28;;;;;;;19.04;97.27;96528.00;4959679;28;20101;-56
2023/04/30 04:30:20;;;;;;;10.93;7.18;;;;;;;18.36;100.00;96532.97;4960968;28;20062;-56
2023/04/30 04:32:52;;;;;;;11.75;7.63;;;;;;;19.02;97.07;96530.84;4957164;28;20078;-59
2023/04/30 04:35:22;;;;;;;10.05;7.07;;;;;;;18.79;97.47;96532.94;4961248;28;20082;-59
2023/04/30 04:37:51;;;;;;;9.53;6.17;;;;;;;18.76;100.00;96538.69;4962798;28;20443;-59
2023/04/30 04:40:19;;;;;;;10.88;7.53;;;;;;;19.08;94.84;96538.09;4957071;28;20086;-55
2023/04/30 04:42:50;;;;;;;9.57;7.10;;;;;;;18.84;98.21;96539.38;4964386;28;20086;-57
2023/04/30 04:45:19;;;;;;;8.85;6.93;;;;;;;18.81;99.61;96541.59;4959296;28;20093;-60
2023/04/30 04:47:48;;;;;;;9.77;7.22;;;;;;;18.91;98.45;96545.59;4961055;28;20137;-57
2023/04/30 04:50:16;;;;;;;9.85;7.45;;;;;;;19.34;93.09;96550.81;4961174;28;20082;-57
2023/04/30 04:52:46;;;;;;;10.13;7.45;;;;;;;19.34;92.05;96550.81;4967701;28;20039;-60
2023/04/30 04:55:15;;;;;;;10.40;7.70;;;;;;;19.38;89.12;96546.69;4958840;28;20714;-57
2023/04/30 04:57:43;;;;;;;9.80;6.57;;;;;;;19.42;91.30;96547.94;4959424;28;20090;-58
2023/04/30 05:00:12;;;;;;;11.50;7.82;;;;;;;19.11;94.77;96553.75;4959381;28;20086;-55
2023/04/30 05:02:41;;;;;;;9.85;7.75;;;;;;;19.56;88.33;96556.88;4958141;28;20089;-57
2023/04/30 05:05:10;;;;;;;12.40;7.22;;;;;;;19.77;87.13;96555.13;4962921;28;20534;-60
2023/04/30 05:07:38;;;;;;;9.60;7.15;;;;;;;19.52;90.42;96547.59;4963110;28;20086;-57
2023/04/30 05:10:09;;;;;;;9.70;7.38;;;;;;;20.01;85.95;96554.59;4960714;28;20086;-59
2023/04/30 05:12:37;;;;;;;11.43;7.38;;;;;;;19.48;89.01;96561.53;4960548;28;20075;-57
2023/04/30 05:15:06;;;;;;;8.27;6.43;;;;;;;19.18;93.00;96557.28;4968710;28;20094;-59
2023/04/30 05:17:35;;;;;;;9.93;7.30;;;;;;;19.22;92.50;96565.72;4964553;28;20479;-55
2023/04/30 05:20:06;;;;;;;11.85;7.55;;;;;;;19.47;91.74;96560.72;4956339;28;20097;-58
2023/04/30 05:22:34;;;;;;;10.05;7.70;;;;;;;19.29;89.14;96565.78;4958696;28;20082;-57
2023/04/30 05:25:02;;;;;;;10.43;7.60;;;;;;;19.73;85.54;96561.91;4964319;28;20094;-59
2023/04/30 05:27:32;;;;;;;10.98;7.25;;;;;;;19.20;90.05;96573.97;4960075;28;20078;-59
2023/04/30 05:30:01;;;;;;;10.75;8.43;;;;;;;19.51;89.34;96577.19;4960366;28;20122;-58
2023/04/30 05:32:29;;;;;;;12.07;8.45;;;;;;;18.95;90.63;96573.56;4960447;28;20082;-58
2023/04/30 05:34:57;;;;;;;11.23;8.05;;;;;;;19.24;85.54;96578.91;4958676;28;20083;-60
2023/04/30 05:37:26;;;;;;;10.85;6.97;;;;;;;18.72;95.00;96581.81;4963981;28;20074;-54
2023/04/30 05:39:54;;;;;;;9.77;7.82;;;;;;;19.44;86.89;96578.00;4961599;28;20093;-58
2023/04/30 05:42:23;;;;;;;9.98;6.85;;;;;;;19.07;91.69;96581.06;4959798;28;20091;-59
2023/04/30 05:44:54;;;;;;;8.88;7.57;;;;;;;18.69;93.99;96584.84;4962936;28;20085;-56
2023/04/30 05:47:22;;;;;;;10.25;8.15;;;;;;;19.01;92.01;96582.66;4963108;28;20091;-59
2023/04/30 05:49:50;;;;;;;10.80;8.68;;;;;;;19.21;89.89;96577.47;4939831;28;20085;-60
2023/04/30 05:52:19;;;;;;;9.85;7.55;;;;;;;19.90;85.12;96571.25;4960911;28;20594;-53
2023/04/30 05:54:48;;;;;;;8.93;7.13;;;;;;;19.70;84.19;96576.50;4963736;28;20145;-58
2023/04/30 05:57:17;;;;;;;10.38;7.43;;;;;;;19.26;88.24;96583.03;4960185;28;20765;-55
2023/04/30 05:59:45;;;;;;;12.15;8.27;;;;;;;20.15;83.23;96572.34;4957546;28;21380;-59
2023/04/30 06:02:15;;;;;;;9.15;7.75;;;;;;;19.72;80.77;96571.81;4954948;28;20480;-60
2023/04/30 06:04:43;;;;;;;11.90;7.47;;;;;;;19.42;84.82;96579.22;4959781;28;20087;-60
2023/04/30 06:07:12;;;;;;;9.35;6.53;;;;;;;19.28;86.05;96581.00;4958882;28;20524;-58
2023/04/30 06:09:40;;;;;;;9.63;7.53;;;;;;;19.77;86.99;96572.00;4961400;28;20078;-58
2023/04/30 06:12:08;;;;;;;8.93;7.03;;;;;;;20.23;78.58;96568.66;4973447;28;20093;-58
2023/04/30 06:14:37;;;;;;;11.57;8.68;;;;;;;19.80;86.91;96574.28;4967295;28;20096;-58
2023/04/30 06:17:05;;;;;;;10.75;7.90;;;;;;;19.84;82.04;96574.72;4966216;28;20086;-58
2023/04/30 06:19:34;;;;;;;9.05;7.05;;;;;;;20.08;83.64;96571.50;4969517;28;20090;-59
2023/04/30 06:22:03;;;;;;;8.63;6.87;;;;;;;19.77;86.39;96573.88;4968258;28;20094;-58
2023/04/30 06:24:31;;;;;;;11.95;8.20;;;;;;;19.94;81.67;96575.16;4977995;28;20082;-60
2023/04/30 06:27:00;;;;;;;10.38;6.97;;;;;;;20.26;79.51;96575.47;4965239;28;20479;-56
2023/04/30 06:29:28;;;;;;;8.57;6.47;;;;;;;20.28;80.25;96568.88;4970756;28;20090;-60
2023/04/30 06:31:56;;;;;;;9.77;7.35;;;;;;;20.82;76.06;96564.44;4950430;28;20502;-58
2023/04/30 06:34:25;;;;;;;8.23;6.80;;;;;;;20.29;79.46;96569.69;4957653;28;20086;-58
2023/04/30 06:36:55;;;;;;;9.93;7.47;;;;;;;20.63;78.65;96569.56;4963401;28;20143;-59
2023/04/30 06:39:23;;;;;;;9.50;6.85;;;;;;;20.96;76.25;96579.50;4961529;28;20073;-59
2023/04/30 06:41:52;;;;;;;8.73;7.50;;;;;;;20.77;74.91;96583.81;4964038;28;20566;-58
2023/04/30 06:44:20;;;;;;;9.93;7.50;;;;;;;21.08;74.79;96571.63;4965780;28;20063;-59
2023/04/30 06:46:48;;;;;;;9.43;7.28;;;;;;;21.81;70.02;96574.97;4959771;28;20078;-58
2023/04/30 06:49:17;;;;;;;10.15;7.80;;;;;;;21.85;67.81;96566.50;4962532;28;20079;-62
2023/04/30 06:51:45;;;;;;;7.93;6.43;;;;;;;21.55;67.30;96575.91;4965618;28;20073;-57
2023/04/30 06:54:15;;;;;;;9.57;6.22;;;;;;;21.77;66.07;96581.00;4947261;28;20086;-62
2023/04/30 06:56:43;;;;;;;9.25;6.55;;;;;;;21.95;65.67;96574.94;4963674;28;20089;-60
2023/04/30 06:59:12;;;;;;;9.18;6.45;;;;;;;21.55;67.11;96588.50;4969927;28;20442;-59
2023/04/30 07:01:40;;;;;;;9.70;6.82;;;;;;;22.02;68.25;96575.72;4964694;28;20082;-60
2023/04/30 07:04:08;;;;;;;7.22;5.68;;;;;;;21.94;66.29;96574.09;4968576;28;20133;-57
2023/04/30 07:06:37;;;;;;;8.80;7.40;;;;;;;21.87;65.98;96570.63;4956879;28;20090;-62
2023/04/30 07:09:06;;;;;;;10.02;8.05;;;;;;;22.63;63.97;96567.13;4961278;28;20475;-61
2023/04/30 07:11:35;;;;;;;8.50;6.68;;;;;;;23.53;60.05;96563.22;4963067;28;20094;-63
2023/04/30 07:14:04;;;;;;;8.47;7.33;;;;;;;22.30;63.26;96570.03;4970390;28;20503;-61
2023/04/30 07:16:32;;;;;;;7.72;6.30;;;;;;;22.14;61.31;96573.19;4971025;28;22265;-59
2023/04/30 07:19:01;;;;;;;6.85;5.25;;;;;;;21.77;68.11;96568.38;4964417;28;20109;-61
2023/04/30 07:21:31;;;;;;;7.43;5.30;;;;;;;;;;4962491;28;20097;-58
2023/04/30 07:23:59;;;;;;;6.50;4.40;;;;;;;21.27;64.31;96570.78;4960770;28;20089;-56
2023/04/30 07:26:28;;;;;;;6.13;5.53;;;;;;;21.45;64.36;96572.84;4962615;28;20097;-60
2023/04/30 07:28:57;;;;;;;5.35;3.63;;;;;;;21.44;64.90;96568.50;4962117;28;20086;-58
2023/04/30 07:31:26;;;;;;;6.87;5.67;;;;;;;20.91;65.38;96573.09;4964047;28;20081;-58
2023/04/30 07:33:55;;;;;;;6.22;4.65;;;;;;;21.33;64.16;96569.97;4962989;28;21218;-57
2023/04/30 07:36:23;;;;;;;6.68;4.40;;;;;;;21.53;61.62;96572.59;4963585;28;20117;-57
2023/04/30 07:38:51;;;;;;;7.22;5.70;;;;;;;20.95;64.92;96572.47;4965882;28;20097;-59
2023/04/30 07:41:20;;;;;;;7.70;5.32;;;;;;;21.31;66.34;96577.38;4965290;28;20093;-59
2023/04/30 07:43:48;;;;;;;9.30;6.28;;;;;;;21.86;61.91;96579.72;4966998;28;20082;-58
2023/04/30 07:46:18;;;;;;;22.20;9.27;;;;;;;21.52;64.08;96568.28;4965579;28;20493;-59
2023/04/30 07:48:46;;;;;;;11.17;6.73;;;;;;;21.60;62.31;96577.13;4971715;28;20086;-60
2023/04/30 07:51:15;;;;;;;16.83;8.85;;;;;;;20.76;65.73;96575.97;4983905;28;20530;-59
2023/04/30 07:53:43;;;;;;;19.58;15.38;;;;;;;19.87;70.60;96574.31;4977385;28;20324;-57
2023/04/30 07:56:12;;;;;;;22.80;17.42;;;;;;;21.41;65.22;96571.63;4977745;28;20133;-57
2023/04/30 07:58:40;;;;;;;6.88;5.32;;;;;;;21.85;60.90;96570.03;4974434;28;20085;-60
2023/04/30 08:01:08;;;;;;;7.35;5.57;;;;;;;21.95;62.70;96565.00;4981110;28;20074;-58
2023/04/30 08:03:38;;;;;;;6.00;4.63;;;;;;;21.63;61.76;96576.72;4976193;28;20089;-61
2023/04/30 08:06:07;;;;;;;6.35;5.05;;;;;;;22.74;56.93;96555.66;4979721;28;20707;-59
2023/04/30 08:08:35;;;;;;;6.80;4.78;;;;;;;22.49;56.03;96570.94;4974692;28;20085;-56
2023/04/30 08:11:03;;;;;;;6.28;5.00;;;;;;;22.99;55.55;96560.25;4977194;28;20070;-59
2023/04/30 08:13:32;;;;;;;6.63;5.30;;;;;;;22.71;56.12;96568.72;4980253;28;20482;-56
2023/04/30 08:16:00;;;;;;;6.25;5.32;;;;;;;22.48;58.28;96562.06;4975219;28;20178;-59
2023/04/30 08:18:29;;;;;;;8.25;4.22;;;;;;;22.97;56.76;96562.34;4980219;28;20081;-59
2023/04/30 08:20:59;;;;;;;7.10;5.45;;;;;;;22.89;55.78;96567.97;4973477;28;20109;-60
2023/04/30 08:23:28;;;;;;;6.45;4.80;;;;;;;22.59;55.33;96560.53;4965759;28;20082;-57
2023/04/30 08:25:56;;;;;;;6.03;5.43;;;;;;;21.94;59.59;96559.84;4978532;28;20177;-57
2023/04/30 08:28:24;;;;;;;6.93;5.53;;;;;;;22.28;57.59;96564.88;4983428;28;20078;-57
2023/04/30 08:30:53;;;;;;;9.02;5.22;;;;;;;22.44;56.73;96560.84;4976676;28;20089;-57
2023/04/30 08:33:21;;;;;;;8.40;6.43;;;;;;;21.80;57.84;96562.59;4971044;28;20550;-58
2023/04/30 08:35:49;;;;;;;7.65;6.10;;;;;;;21.85;57.86;96561.97;4981442;28;20080;-58
2023/04/30 08:38:19;;;;;;;6.82;5.30;;;;;;;22.45;54.67;96556.31;4970489;28;20538;-56
2023/04/30 08:40:55;;;;;;;6.63;5.40;;;;;;;22.80;54.70;96553.16;4974184;28;20093;-57
2023/04/30 08:43:23;;;;;;;6.40;4.50;;;;;;;23.14;51.92;96557.22;4973302;28;20081;-54
2023/04/30 08:45:52;;;;;;;5.40;4.70;;;;;;;23.07;52.54;96565.34;4980909;28;20092;-60
2023/04/30 08:48:21;;;;;;;6.97;5.25;;;;;;;23.49;50.48;96556.66;4977598;28;20084;-55
2023/04/30 08:50:49;;;;;;;6.53;5.30;;;;;;;24.14;51.17;96556.94;4977239;28;20090;-60
2023/04/30 08:53:20;;;;;;;6.20;5.45;;;;;;;24.01;47.10;96560.63;4971288;28;20090;-55
2023/04/30 08:55:48;;;;;;;7.78;5.45;;;;;;;23.50;49.65;96556.41;4975623;28;20083;-59
2023/04/30 08:58:17;;;;;;;11.57;5.45;;;;;;;23.21;50.80;96561.50;4977027;28;20085;-55
2023/04/30 09:00:45;;;;;;;9.38;5.72;;;;;;;24.35;49.93;96559.13;4971802;28;20081;-61
2023/04/30 09:03:13;;;;;;;9.13;6.10;;;;;;;23.99;49.45;96559.22;4976060;28;20090;-58
2023/04/30 09:05:42;;;;;;;6.28;5.53;;;;;;;24.44;47.51;96551.56;4972494;28;20082;-56
2023/04/30 09:08:17;;;;;;;5.90;5.18;;;;;;;24.45;48.74;96552.38;4968871;28;20117;-59
2023/04/30 09:10:46;;;;;;;5.53;4.85;;;;;;;23.66;49.31;96566.59;4976365;28;20535;-58
2023/04/30 09:13:14;;;;;;;6.77;5.53;;;;;;;24.03;46.34;96568.50;4978296;28;20089;-60
2023/04/30 09:15:44;;;;;;;6.93;5.88;;;;;;;23.09;50.76;96559.72;4974087;28;21293;-61
2023/04/30 09:18:16;;;;;;;6.03;4.93;;;;;;;22.18;54.02;96579.81;4982466;28;20090;-59
2023/04/30 09:20:55;;;;;;;7.38;5.72;;;;;;;22.86;51.52;96563.03;4967586;28;20089;-56
2023/04/30 09:23:24;;;;;;;6.97;5.38;;;;;;;22.59;50.29;96568.59;4968935;28;20086;-61
2023/04/30 09:25:54;;;;;;;5.22;4.43;;;;;;;23.52;49.97;96567.81;4973247;28;20120;-57
2023/04/30 09:28:24;;;;;;;5.93;4.00;;;;;;;23.32;50.38;96569.88;4972804;28;20081;-59
2023/04/30 09:30:53;;;;;;;;;;;;;;;24.06;47.51;96568.84;4971255;28;20090;-58
2023/04/30 09:33:21;;;;;;;5.00;4.43;;;;;;;24.20;47.46;96556.03;4972241;28;19957;-59
2023/04/30 09:35:49;;;;;;;7.68;4.75;;;;;;;24.22;48.36;96556.59;4982469;28;20085;-61
2023/04/30 09:38:28;;;;;;;7.20;5.13;;;;;;;24.76;47.43;96564.78;4969727;28;20097;-57
2023/04/30 09:41:00;;;;;;;5.38;4.60;;;;;;;23.42;48.71;96570.19;4975118;28;20086;-57
2023/04/30 09:43:28;;;;;;;6.22;4.25;;;;;;;23.46;47.85;96566.81;4974061;28;20117;-59
2023/04/30 09:45:58;;;;;;;5.47;4.65;;;;;;;23.58;47.11;96566.09;4983911;28;20078;-60
2023/04/30 09:48:27;;;;;;;6.03;4.97;;;;;;;23.71;48.17;96567.81;4973758;28;20047;-60
2023/04/30 09:50:56;;;;;;;4.93;4.43;;;;;;;24.61;45.70;96562.53;4975740;28;20074;-55
2023/04/30 09:53:24;;;;;;;6.07;4.90;;;;;;;24.06;45.59;96555.38;4981103;28;20538;-58
2023/04/30 09:55:53;;;;;;;5.15;4.63;;;;;;;23.12;47.45;96564.69;4980476;28;20089;-60
2023/04/30 09:58:27;;;;;;;5.70;5.13;;;;;;;22.81;48.14;96568.22;4980792;28;20086;-57
2023/04/30 10:00:58;;;;;;;5.85;4.85;;;;;;;23.11;48.45;96565.72;4982868;28;20469;-57
2023/04/30 10:03:30;;;;;;;5.05;4.55;;;;;;;23.29;49.21;96562.25;4969814;28;20042;-60
2023/04/30 10:05:58;;;;;;;5.90;4.72;;;;;;;23.45;47.21;96567.06;4958654;28;20069;-55
2023/04/30 10:08:28;;;;;;;5.85;4.40;;;;;;;23.93;46.59;96558.25;4973702;28;20630;-62
2023/04/30 10:10:59;;;;;;;5.05;4.43;;;;;;;23.39;46.36;96562.56;4981804;28;20078;-60
2023/04/30 10:13:31;;;;;;;5.88;4.28;;;;;;;23.12;47.61;96564.69;4980072;28;20482;-60
2023/04/30 10:16:04;;;;;;;5.25;4.22;;;;;;;23.26;47.41;96563.50;4978213;28;20085;-60
2023/04/30 10:18:35;;;;;;;5.25;4.40;;;;;;;23.59;45.16;96563.16;4980675;28;20089;-60
2023/04/30 10:21:04;;;;;;;;;;;;;;;23.25;45.70;96544.91;4978850;28;20097;-56
2023/04/30 10:23:33;;;;;;;4.53;3.70;;;;;;;24.56;43.15;96549.72;4977837;28;19961;-54
2023/04/30 10:26:02;;;;;;;5.07;3.75;;;;;;;24.28;42.26;96539.53;4982409;28;20078;-60
2023/04/30 10:28:32;;;;;;;5.13;3.88;;;;;;;24.42;43.32;96542.06;4974497;28;20090;-59
2023/04/30 10:31:01;;;;;;;4.03;3.60;;;;;;;25.70;41.43;96545.88;4974296;28;20077;-60
2023/04/30 10:33:34;;;;;;;4.70;3.60;;;;;;;24.65;40.30;96544.81;4975536;28;20089;-61
2023/04/30 10:36:05;;;;;;;4.90;3.67;;;;;;;23.94;42.53;96541.03;4978038;28;20101;-59
2023/04/30 10:38:34;;;;;;;4.68;3.28;;;;;;;24.74;40.72;96527.25;4976938;28;20101;-60
2023/04/30 10:41:04;;;;;;;4.32;3.30;;;;;;;25.74;40.29;96541.63;4971362;28;20087;-60
2023/04/30 10:43:35;;;;;;;;;;;;;;;24.17;40.71;96535.75;4977443;28;20101;-60
2023/04/30 10:46:03;;;;;;;4.28;3.75;;;;;;;23.97;41.67;96527.09;4971927;28;19988;-60
2023/04/30 10:48:34;;;;;;;4.38;3.50;;;;;;;25.74;39.67;96523.56;4979122;28;20094;-59
2023/04/30 10:51:03;;;;;;;6.93;3.28;;;;;;;25.40;39.78;96529.88;4973672;28;20089;-62
2023/04/30 10:53:32;;;;;;;3.38;2.92;;;;;;;24.76;39.44;96525.13;4972983;28;20507;-60
2023/04/30 10:56:05;;;;;;;4.05;3.30;;;;;;;24.66;39.89;96526.75;4977021;28;20469;-60
2023/04/30 10:58:39;;;;;;;3.90;3.00;;;;;;;26.61;37.86;96513.59;4981081;28;20193;-59
2023/04/30 11:01:10;;;;;;;5.20;3.53;;;;;;;26.07;38.35;96510.44;4973927;28;20070;-60
2023/04/30 11:03:41;;;;;;;3.58;2.38;;;;;;;25.87;39.51;96511.69;4971525;28;20569;-59
2023/04/30 11:06:12;;;;;;;4.00;3.50;;;;;;;25.36;39.37;96507.06;4977509;28;20093;-58
2023/04/30 11:08:45;;;;;;;3.92;3.40;;;;;;;25.50;39.42;96505.78;4978387;28;20138;-59
2023/04/30 11:11:19;;;;;;;8.00;3.00;;;;;;;25.94;38.15;96504.25;4977527;28;20086;-61
2023/04/30 11:13:59;;;;;;;4.38;3.25;;;;;;;26.08;37.95;96504.78;4977026;28;20089;-59
2023/04/30 11:16:29;;;;;;;3.30;2.67;;;;;;;26.21;36.67;96495.56;4987347;28;20097;-60
2023/04/30 11:19:06;;;;;;;3.22;2.80;;;;;;;26.03;38.05;96502.00;4972162;28;20633;-56
2023/04/30 11:21:40;;;;;;;3.08;2.70;;;;;;;24.82;38.28;96512.59;4973045;28;20096;-59
2023/04/30 11:24:08;;;;;;;4.85;3.45;;;;;;;25.52;38.20;96506.34;4981675;28;20537;-58
2023/04/30 11:27:04;;;;;;;3.33;2.80;;;;;;;24.93;39.06;96503.69;4976257;28;20086;-59
2023/04/30 11:29:34;;;;;;;3.75;3.33;;;;;;;25.07;39.26;96507.78;4976064;28;20090;-61
2023/04/30 11:32:04;;;;;;;3.45;2.95;;;;;;;26.02;37.84;96501.19;4982531;28;20094;-57
2023/04/30 11:34:34;;;;;;;4.25;3.00;;;;;;;25.20;38.11;96501.34;4973181;28;20110;-56
2023/04/30 11:37:03;;;;;;;14.55;3.67;;;;;;;24.66;38.95;96497.91;4977731;28;20109;-59